Time;durP1;ratioP1;P1;durP2;ratioP2;P2;SDS_P1;SDS_P2;PMS_P1;PMS_P2;Temp;Humidity;BMP_temperature;BMP_pressure;BME280_temperature;BME280_humidity;BME280_pressure;Samples;Min_cycle;Max_cycle;Signal;HPM_P1;HPM_P2
2022/09/07 00:00:36;;;;;;;6.43;3.13;;;19.00;93.30;;;;;;5013964;28;20036;-79
2022/09/07 00:03:02;;;;;;;4.97;2.78;;;19.00;93.60;;;;;;5013560;28;20363;-77
2022/09/07 00:05:30;;;;;;;6.78;2.85;;;18.90;93.20;;;;;;5013499;28;20014;-77
2022/09/07 00:07:58;;;;;;;5.28;2.45;;;18.90;93.70;;;;;;5015100;28;20053;-77
2022/09/07 00:10:24;;;;;;;7.38;2.67;;;18.90;93.30;;;;;;4997308;28;20577;-78
2022/09/07 00:12:50;;;;;;;8.32;2.65;;;18.90;93.40;;;;;;5013366;28;20029;-77
2022/09/07 00:15:17;;;;;;;4.32;2.42;;;18.80;93.60;;;;;;4996841;28;20029;-80
2022/09/07 00:17:43;;;;;;;6.30;2.80;;;18.80;93.80;;;;;;4997213;28;20038;-79
2022/09/07 00:20:10;;;;;;;6.93;2.63;;;18.80;93.60;;;;;;5013099;28;20029;-77
2022/09/07 00:22:36;;;;;;;7.10;2.47;;;18.80;93.50;;;;;;5013469;28;20435;-77
2022/09/07 00:25:02;;;;;;;4.30;2.22;;;18.80;93.40;;;;;;4996837;28;20052;-77
2022/09/07 00:27:28;;;;;;;6.68;2.97;;;18.80;93.60;;;;;;5014737;28;20076;-78
2022/09/07 00:29:54;;;;;;;6.03;2.53;;;18.80;93.80;;;;;;4997005;28;20034;-77
2022/09/07 00:32:19;;;;;;;7.90;2.30;;;18.80;94.00;;;;;;5013113;28;20080;-79
2022/09/07 00:34:45;;;;;;;4.03;1.85;;;18.80;93.80;;;;;;5012911;28;20026;-77
2022/09/07 00:37:10;;;;;;;5.32;1.80;;;18.80;93.90;;;;;;4996515;28;20045;-77
2022/09/07 00:39:36;;;;;;;4.80;1.80;;;18.80;93.70;;;;;;5013205;28;20069;-76
2022/09/07 00:42:02;;;;;;;6.15;1.75;;;18.80;93.60;;;;;;5012858;28;20029;-77
2022/09/07 00:45:02;;;;;;;4.20;1.90;;;18.80;93.80;;;;;;5012103;28;20018;-77
2022/09/07 00:47:36;;;;;;;3.42;1.40;;;18.80;93.60;;;;;;5014189;28;20096;-78
2022/09/07 00:50:23;;;;;;;5.00;1.77;;;18.80;93.50;;;;;;5014084;28;20475;-78
2022/09/07 00:53:03;;;;;;;2.70;1.25;;;18.90;93.60;;;;;;5013936;28;20470;-76
2022/09/07 00:55:30;;;;;;;2.25;1.15;;;18.80;93.60;;;;;;5012541;28;20117;-76
2022/09/07 00:57:57;;;;;;;3.90;1.15;;;18.80;93.60;;;;;;5014215;28;20034;-77
2022/09/07 01:00:23;;;;;;;5.18;1.20;;;18.80;93.60;;;;;;4996363;28;20466;-77
2022/09/07 01:02:52;;;;;;;3.90;1.00;;;18.80;93.70;;;;;;5013330;28;20528;-76
2022/09/07 01:05:32;;;;;;;2.78;0.77;;;18.80;93.70;;;;;;5012550;28;20034;-77
2022/09/07 01:07:58;;;;;;;2.50;0.60;;;18.80;93.60;;;;;;5012358;28;20080;-77
2022/09/07 01:10:29;;;;;;;3.40;0.82;;;18.80;93.90;;;;;;5012516;28;20037;-76
2022/09/07 01:12:55;;;;;;;4.00;1.23;;;18.80;93.60;;;;;;5013672;28;20060;-77
2022/09/07 01:15:26;;;;;;;4.90;1.17;;;18.70;93.50;;;;;;4996485;28;20042;-77
2022/09/07 01:18:10;;;;;;;1.83;0.98;;;18.70;93.50;;;;;;5013546;28;20026;-78
2022/09/07 01:20:51;;;;;;;3.20;0.93;;;18.60;93.60;;;;;;5012069;28;20553;-80
2022/09/07 01:23:56;;;;;;;2.67;1.33;;;18.60;93.70;;;;;;5012154;28;20022;-79
2022/09/07 01:26:48;;;;;;;5.15;1.55;;;18.50;94.00;;;;;;5012287;28;20116;-79
2022/09/07 01:29:31;;;;;;;3.83;1.08;;;18.40;94.00;;;;;;5004295;28;20042;-78
2022/09/07 01:32:22;;;;;;;4.65;1.10;;;18.40;94.00;;;;;;5014007;28;20026;-77
2022/09/07 01:34:51;;;;;;;5.97;1.35;;;18.30;93.90;;;;;;5013282;28;20026;-78
2022/09/07 01:37:39;;;;;;;3.15;1.02;;;18.30;93.90;;;;;;5012947;28;20030;-77
2022/09/07 01:40:11;;;;;;;2.83;0.90;;;18.30;93.80;;;;;;5013266;28;20022;-77
2022/09/07 01:42:53;;;;;;;2.97;1.17;;;18.30;93.90;;;;;;5013888;28;20026;-77
2022/09/07 01:45:23;;;;;;;4.03;0.90;;;18.30;93.90;;;;;;5012759;28;20034;-78
2022/09/07 01:47:53;;;;;;;3.92;1.17;;;18.30;93.80;;;;;;5012453;28;20032;-77
2022/09/07 01:50:21;;;;;;;4.18;1.00;;;18.30;93.80;;;;;;5014079;28;20029;-78
2022/09/07 01:52:59;;;;;;;4.72;1.05;;;18.30;94.10;;;;;;5014094;28;20437;-78
2022/09/07 01:55:45;;;;;;;4.30;1.05;;;18.30;93.80;;;;;;5012780;28;20537;-78
2022/09/07 01:58:22;;;;;;;4.20;1.00;;;18.30;93.80;;;;;;5016195;28;20022;-77
2022/09/07 02:00:53;;;;;;;5.22;1.25;;;18.30;94.00;;;;;;5017671;28;20017;-78
2022/09/07 02:03:24;;;;;;;2.63;1.10;;;18.30;93.80;;;;;;5016278;28;20019;-78
2022/09/07 02:05:52;;;;;;;3.15;0.90;;;18.30;93.90;;;;;;5018054;28;20097;-78
2022/09/07 02:08:34;;;;;;;4.82;1.10;;;18.20;93.80;;;;;;5018610;28;20041;-78
2022/09/07 02:11:18;;;;;;;4.47;1.08;;;18.20;93.90;;;;;;5035688;28;20036;-78
2022/09/07 02:13:50;;;;;;;2.92;1.10;;;18.20;94.00;;;;;;5036456;28;20030;-82
2022/09/07 02:16:22;;;;;;;3.38;1.00;;;18.20;93.90;;;;;;5031821;28;20544;-82
2022/09/07 02:18:52;;;;;;;4.90;1.10;;;18.20;94.00;;;;;;5031433;28;20112;-82
2022/09/07 02:21:22;;;;;;;2.85;1.02;;;18.20;94.00;;;;;;5036237;28;20127;-78
2022/09/07 02:23:56;;;;;;;3.28;1.00;;;18.20;94.00;;;;;;5035390;28;20543;-78
2022/09/07 02:26:27;;;;;;;2.50;1.10;;;18.20;94.10;;;;;;5036148;28;20061;-82
2022/09/07 02:28:53;;;;;;;1.60;0.60;;;18.20;94.20;;;;;;5035060;28;20116;-82
2022/09/07 02:31:19;;;;;;;3.53;0.98;;;18.20;94.30;;;;;;5036222;28;20063;-82
2022/09/07 02:33:45;;;;;;;2.80;0.65;;;18.20;94.30;;;;;;5018441;28;20100;-82
2022/09/07 02:36:14;;;;;;;1.08;0.57;;;18.20;94.30;;;;;;5036141;28;20108;-82
2022/09/07 02:38:40;;;;;;;2.67;1.08;;;18.30;94.40;;;;;;5034787;28;20448;-82
2022/09/07 02:41:44;;;;;;;4.80;0.77;;;18.30;94.30;;;;;;5034810;28;20025;-82
2022/09/07 02:44:20;;;;;;;2.47;0.93;;;18.30;94.40;;;;;;5036039;28;20470;-82
2022/09/07 02:46:52;;;;;;;2.05;0.80;;;18.30;94.40;;;;;;5034571;28;20428;-82
2022/09/07 02:49:48;;;;;;;3.05;0.90;;;18.30;94.40;;;;;;5035901;28;20068;-81
2022/09/07 02:52:39;;;;;;;2.78;0.70;;;18.40;94.40;;;;;;5034366;28;20026;-82
2022/09/07 02:55:50;;;;;;;2.17;0.60;;;18.40;94.40;;;;;;5034028;28;20034;-82
2022/09/07 02:58:48;;;;;;;3.95;0.70;;;18.40;94.40;;;;;;5027749;28;20037;-82
2022/09/07 03:01:31;;;;;;;2.13;0.60;;;18.40;94.40;;;;;;5034379;28;20379;-81
2022/09/07 03:04:09;;;;;;;2.03;0.70;;;18.40;94.40;;;;;;5034425;28;20026;-82
2022/09/07 03:06:42;;;;;;;1.38;0.55;;;18.40;94.30;;;;;;5035266;28;20088;-82
2022/09/07 03:09:15;;;;;;;3.63;0.80;;;18.30;94.30;;;;;;5035514;28;20018;-83
2022/09/07 03:11:41;;;;;;;2.03;0.60;;;18.40;94.40;;;;;;5034301;28;20021;-83
2022/09/07 03:14:25;;;;;;;3.17;0.68;;;18.40;94.40;;;;;;5034468;28;20063;-82
2022/09/07 03:16:52;;;;;;;;;;;18.40;94.40;;;;;;5034667;28;20036;-82
2022/09/07 03:19:18;;;;;;;4.22;0.50;;;18.40;94.40;;;;;;5034158;28;20354;-82
2022/09/07 03:21:43;;;;;;;2.15;0.57;;;18.40;94.40;;;;;;5017446;28;20045;-82
2022/09/07 03:24:09;;;;;;;1.88;0.75;;;18.40;94.40;;;;;;5033973;28;20034;-81
2022/09/07 03:26:39;;;;;;;3.80;0.70;;;18.40;94.40;;;;;;5033929;28;20029;-83
2022/09/07 03:29:05;;;;;;;2.63;0.70;;;18.50;94.40;;;;;;5035211;28;20026;-83
2022/09/07 03:31:32;;;;;;;3.53;0.70;;;18.40;94.40;;;;;;5033944;28;20030;-82
2022/09/07 03:33:57;;;;;;;2.58;0.70;;;18.50;94.40;;;;;;5035026;28;20485;-82
2022/09/07 03:36:23;;;;;;;3.03;0.60;;;18.50;94.40;;;;;;5033831;28;20039;-82
2022/09/07 03:38:49;;;;;;;3.95;0.80;;;18.50;94.50;;;;;;5033726;28;20100;-82
2022/09/07 03:41:14;;;;;;;2.75;0.90;;;18.50;94.40;;;;;;5034934;28;20053;-82
2022/09/07 03:43:40;;;;;;;5.15;0.90;;;18.50;94.40;;;;;;5017234;28;20381;-83
2022/09/07 03:46:06;;;;;;;2.67;0.80;;;18.50;94.40;;;;;;5017080;28;20030;-82
2022/09/07 03:48:33;;;;;;;2.17;0.90;;;18.50;94.50;;;;;;5033644;28;20125;-83
2022/09/07 03:51:05;;;;;;;3.05;0.98;;;18.50;94.50;;;;;;5033597;28;20040;-83
2022/09/07 03:53:36;;;;;;;2.28;0.77;;;18.50;94.60;;;;;;5033451;28;20030;-82
2022/09/07 03:56:05;;;;;;;3.33;0.90;;;18.60;94.60;;;;;;5034647;28;20040;-82
2022/09/07 03:58:32;;;;;;;4.05;0.80;;;18.60;94.60;;;;;;5034601;28;20021;-82
2022/09/07 04:00:59;;;;;;;2.83;0.70;;;18.60;94.60;;;;;;5034628;28;20152;-82
2022/09/07 04:03:25;;;;;;;2.67;0.90;;;18.60;94.60;;;;;;5033380;28;20095;-82
2022/09/07 04:05:51;;;;;;;1.98;0.65;;;18.60;94.60;;;;;;5033228;28;20433;-83
2022/09/07 04:08:17;;;;;;;3.28;1.10;;;18.60;94.60;;;;;;5033196;28;20080;-82
2022/09/07 04:10:42;;;;;;;2.80;0.77;;;18.70;94.60;;;;;;5034362;28;20156;-83
2022/09/07 04:13:09;;;;;;;3.97;0.93;;;18.70;94.60;;;;;;5033120;28;20410;-82
2022/09/07 04:15:34;;;;;;;1.85;0.80;;;18.70;94.50;;;;;;5032972;28;20508;-82
2022/09/07 04:18:00;;;;;;;3.22;1.00;;;18.70;94.50;;;;;;5032845;28;20025;-82
2022/09/07 04:20:26;;;;;;;2.85;0.90;;;18.70;94.50;;;;;;5016302;28;20044;-82
2022/09/07 04:22:52;;;;;;;2.92;1.15;;;18.70;94.50;;;;;;5032918;28;20030;-83
2022/09/07 04:25:18;;;;;;;4.28;1.00;;;18.70;94.50;;;;;;5016636;28;20485;-82
2022/09/07 04:27:44;;;;;;;3.17;1.40;;;18.70;94.50;;;;;;5033076;28;20041;-83
2022/09/07 04:30:10;;;;;;;2.05;1.10;;;18.70;94.60;;;;;;5016305;28;20057;-83
2022/09/07 04:32:36;;;;;;;3.47;1.45;;;18.70;94.60;;;;;;5028698;28;20026;-83
2022/09/07 04:35:02;;;;;;;4.03;1.75;;;18.70;94.70;;;;;;5012817;28;20072;-85
2022/09/07 04:37:28;;;;;;;3.40;1.50;;;18.70;94.70;;;;;;5013952;28;20498;-81
2022/09/07 04:39:53;;;;;;;3.80;1.60;;;18.70;94.70;;;;;;5014144;28;20068;-81
2022/09/07 04:42:20;;;;;;;4.85;2.22;;;18.70;94.70;;;;;;5014163;28;20026;-81
2022/09/07 04:44:48;;;;;;;6.63;1.88;;;18.70;94.80;;;;;;5013963;28;20386;-81
2022/09/07 04:47:14;;;;;;;6.20;2.25;;;18.70;95.00;;;;;;5014045;28;20037;-81
2022/09/07 04:49:39;;;;;;;5.60;1.95;;;18.70;94.80;;;;;;5013983;28;20030;-81
2022/09/07 04:52:05;;;;;;;6.97;3.05;;;18.70;94.80;;;;;;5013921;28;20108;-81
2022/09/07 04:54:31;;;;;;;5.82;2.95;;;18.70;94.80;;;;;;5012574;28;20140;-81
2022/09/07 04:56:56;;;;;;;6.18;2.58;;;18.70;94.80;;;;;;5012335;28;20498;-81
2022/09/07 04:59:22;;;;;;;7.47;3.15;;;18.70;94.80;;;;;;5013662;28;20087;-81
2022/09/07 05:01:47;;;;;;;6.05;2.67;;;18.70;94.80;;;;;;5012462;28;20086;-81
2022/09/07 05:04:13;;;;;;;8.38;3.50;;;18.70;94.90;;;;;;5027556;28;20030;-81
2022/09/07 05:06:38;;;;;;;6.72;3.28;;;18.70;94.90;;;;;;5035861;28;20029;-81
2022/09/07 05:09:04;;;;;;;7.15;3.53;;;18.70;94.90;;;;;;5033235;28;20029;-81
2022/09/07 05:11:30;;;;;;;5.68;3.17;;;18.60;94.90;;;;;;5040522;28;20040;-82
2022/09/07 05:13:57;;;;;;;5.22;2.92;;;18.60;94.90;;;;;;5046334;28;20036;-81
2022/09/07 05:16:24;;;;;;;7.38;3.47;;;18.60;95.00;;;;;;4998178;28;20022;-81
2022/09/07 05:18:52;;;;;;;5.90;3.22;;;18.60;95.10;;;;;;5032157;28;20037;-81
2022/09/07 05:21:21;;;;;;;7.30;3.10;;;18.50;95.10;;;;;;5031725;28;20041;-81
2022/09/07 05:23:51;;;;;;;5.85;3.20;;;18.50;95.10;;;;;;5032038;28;20021;-81
2022/09/07 05:26:18;;;;;;;7.95;3.60;;;18.50;95.20;;;;;;5033229;28;20385;-81
2022/09/07 05:28:43;;;;;;;6.25;3.47;;;18.50;95.30;;;;;;5015690;28;20037;-81
2022/09/07 05:31:15;;;;;;;6.55;3.08;;;18.50;95.30;;;;;;5034019;28;20025;-82
2022/09/07 05:33:46;;;;;;;5.93;2.78;;;18.50;95.40;;;;;;5036030;28;20504;-82
2022/09/07 05:36:11;;;;;;;6.38;3.50;;;18.50;95.40;;;;;;5036082;28;20389;-81
2022/09/07 05:38:37;;;;;;;7.28;3.17;;;18.50;95.50;;;;;;5035863;28;20026;-81
2022/09/07 05:41:11;;;;;;;7.13;3.13;;;18.50;95.60;;;;;;5037718;28;20018;-81
2022/09/07 05:43:36;;;;;;;6.65;3.58;;;18.50;95.60;;;;;;5035930;28;20032;-81
2022/09/07 05:46:02;;;;;;;4.97;2.97;;;18.50;95.70;;;;;;5035896;28;20112;-81
2022/09/07 05:48:28;;;;;;;7.85;3.58;;;18.50;95.70;;;;;;5035850;28;20021;-80
2022/09/07 05:50:54;;;;;;;5.75;3.60;;;18.60;95.80;;;;;;5036857;28;20059;-80
2022/09/07 05:53:20;;;;;;;7.20;3.70;;;18.60;95.80;;;;;;5035736;28;20036;-81
2022/09/07 05:55:46;;;;;;;6.53;3.65;;;18.60;95.80;;;;;;5035798;28;20381;-81
2022/09/07 05:58:12;;;;;;;10.23;3.60;;;18.60;95.80;;;;;;5035563;28;20026;-81
2022/09/07 06:00:38;;;;;;;7.85;4.22;;;18.60;95.80;;;;;;5037612;28;20083;-85
2022/09/07 06:03:03;;;;;;;7.43;4.25;;;18.60;95.80;;;;;;5035852;28;20025;-85
2022/09/07 06:05:29;;;;;;;7.72;4.45;;;18.60;95.80;;;;;;5019375;28;20026;-80
2022/09/07 06:07:55;;;;;;;8.90;5.63;;;18.60;95.90;;;;;;5015493;28;20036;-80
2022/09/07 06:10:20;;;;;;;8.63;5.75;;;18.60;96.00;;;;;;5026143;28;20033;-80
2022/09/07 06:12:46;;;;;;;11.70;5.95;;;18.60;96.00;;;;;;5015501;28;20025;-79
2022/09/07 06:15:12;;;;;;;8.68;5.57;;;18.60;96.00;;;;;;4998847;28;20092;-81
2022/09/07 06:17:38;;;;;;;10.63;5.63;;;18.60;96.00;;;;;;5030585;28;20156;-79
2022/09/07 06:20:05;;;;;;;9.98;6.47;;;18.60;96.00;;;;;;5034967;28;20592;-82
2022/09/07 06:22:35;;;;;;;11.75;6.68;;;18.60;96.00;;;;;;5034573;28;20038;-81
2022/09/07 06:25:00;;;;;;;10.00;5.65;;;18.60;95.90;;;;;;5034780;28;20049;-80
2022/09/07 06:27:26;;;;;;;7.57;5.68;;;18.60;95.90;;;;;;5034770;28;20496;-80
2022/09/07 06:29:52;;;;;;;10.25;6.03;;;18.60;95.80;;;;;;5036157;28;20083;-80
2022/09/07 06:32:18;;;;;;;7.70;6.15;;;18.60;95.80;;;;;;5034744;28;20037;-80
2022/09/07 06:34:43;;;;;;;10.85;6.55;;;18.60;95.80;;;;;;5018290;28;20501;-79
2022/09/07 06:37:09;;;;;;;10.27;5.57;;;18.60;95.80;;;;;;5034218;28;20065;-80
2022/09/07 06:39:35;;;;;;;8.15;5.63;;;18.60;95.70;;;;;;5009055;28;20121;-80
2022/09/07 06:42:03;;;;;;;11.45;7.78;;;18.60;95.70;;;;;;5013922;28;20433;-80
2022/09/07 06:44:29;;;;;;;10.95;7.10;;;18.60;95.80;;;;;;5014786;28;20022;-80
2022/09/07 06:46:54;;;;;;;10.27;7.20;;;18.60;95.70;;;;;;5014929;28;20413;-80
2022/09/07 06:49:20;;;;;;;10.07;7.20;;;18.60;95.70;;;;;;5031282;28;20124;-80
2022/09/07 06:51:46;;;;;;;10.18;6.88;;;18.60;95.70;;;;;;5016036;28;20022;-79
2022/09/07 06:54:11;;;;;;;11.05;7.45;;;18.60;95.70;;;;;;5014746;28;20125;-80
2022/09/07 06:56:37;;;;;;;12.65;7.82;;;18.60;95.70;;;;;;5014797;28;20045;-80
2022/09/07 06:59:03;;;;;;;11.23;7.70;;;18.60;95.70;;;;;;5032293;28;20423;-80
2022/09/07 07:01:29;;;;;;;10.85;8.48;;;18.60;95.70;;;;;;5007156;28;20038;-80
2022/09/07 07:03:55;;;;;;;12.60;8.43;;;18.60;95.70;;;;;;5014922;28;20109;-80
2022/09/07 07:06:21;;;;;;;12.90;8.38;;;18.50;95.70;;;;;;5014606;28;20157;-80
2022/09/07 07:08:47;;;;;;;14.02;8.57;;;18.60;95.80;;;;;;5014445;28;20394;-79
2022/09/07 07:11:14;;;;;;;11.30;8.85;;;18.60;95.80;;;;;;5015716;28;20371;-81
2022/09/07 07:13:41;;;;;;;11.80;8.02;;;18.60;95.80;;;;;;4998166;28;20058;-80
2022/09/07 07:16:11;;;;;;;14.57;9.07;;;18.70;95.80;;;;;;5014278;28;20530;-81
2022/09/07 07:18:37;;;;;;;14.10;10.43;;;18.80;95.80;;;;;;5014842;28;20033;-81
2022/09/07 07:21:05;;;;;;;14.38;10.20;;;18.80;95.70;;;;;;5016642;28;20125;-80
2022/09/07 07:23:30;;;;;;;11.70;9.07;;;18.80;95.60;;;;;;5018267;28;20087;-81
2022/09/07 07:26:04;;;;;;;13.70;9.82;;;18.90;95.60;;;;;;5018734;28;20428;-83
2022/09/07 07:28:31;;;;;;;13.05;10.57;;;18.90;95.50;;;;;;5018878;28;20103;-84
2022/09/07 07:30:58;;;;;;;13.75;9.35;;;18.90;95.50;;;;;;5029757;28;20382;-83
2022/09/07 07:33:34;;;;;;;11.65;9.07;;;18.90;95.40;;;;;;5034974;28;20025;-83
2022/09/07 07:36:18;;;;;;;13.15;9.93;;;18.90;95.30;;;;;;5030909;28;20030;-83
2022/09/07 07:38:46;;;;;;;14.70;10.45;;;19.00;95.30;;;;;;5027358;28;20104;-83
2022/09/07 07:41:13;;;;;;;13.50;10.32;;;18.90;95.20;;;;;;5013923;28;20076;-83
2022/09/07 07:43:39;;;;;;;13.90;10.15;;;18.90;95.10;;;;;;4998550;28;20109;-84
2022/09/07 07:46:05;;;;;;;14.13;10.57;;;19.00;95.20;;;;;;4997811;28;20053;-84
2022/09/07 07:48:31;;;;;;;13.10;10.40;;;18.90;95.20;;;;;;4998389;28;20026;-83
2022/09/07 07:51:05;;;;;;;13.35;9.88;;;19.00;95.30;;;;;;5015353;28;20041;-83
2022/09/07 07:53:36;;;;;;;14.48;9.93;;;19.10;95.30;;;;;;5000934;28;20058;-84
2022/09/07 07:56:05;;;;;;;14.70;10.23;;;19.10;95.20;;;;;;5033693;28;20025;-84
2022/09/07 07:58:33;;;;;;;15.20;12.10;;;19.10;95.30;;;;;;5034879;28;20075;-83
2022/09/07 08:01:09;;;;;;;17.70;13.45;;;19.30;95.30;;;;;;5034863;28;20060;-83
2022/09/07 08:03:37;;;;;;;22.00;17.10;;;19.30;95.20;;;;;;5033734;28;20025;-86
2022/09/07 08:06:10;;;;;;;22.25;16.13;;;19.30;95.10;;;;;;5030218;28;20099;-85
2022/09/07 08:08:36;;;;;;;24.05;17.23;;;19.30;95.10;;;;;;5013868;28;20461;-83
2022/09/07 08:11:07;;;;;;;22.95;18.13;;;19.30;95.20;;;;;;5013583;28;20482;-85
2022/09/07 08:13:37;;;;;;;20.60;15.90;;;19.30;95.20;;;;;;5013630;28;20113;-84
2022/09/07 08:16:04;;;;;;;18.52;14.95;;;19.40;95.30;;;;;;5014122;28;20030;-86
2022/09/07 08:18:32;;;;;;;20.55;18.10;;;19.50;95.30;;;;;;5014961;28;20030;-83
2022/09/07 08:21:02;;;;;;;20.90;16.02;;;19.50;95.20;;;;;;5013658;28;20045;-83
2022/09/07 08:23:30;;;;;;;20.13;16.17;;;19.60;95.20;;;;;;5015032;28;20026;-83
2022/09/07 08:25:57;;;;;;;19.17;14.05;;;19.70;95.10;;;;;;5016743;28;20029;-84
2022/09/07 08:28:28;;;;;;;17.98;14.05;;;19.90;95.10;;;;;;5014671;28;20029;-83
2022/09/07 08:30:54;;;;;;;21.40;16.30;;;19.90;94.80;;;;;;5004135;28;20029;-83
2022/09/07 08:33:20;;;;;;;22.38;17.88;;;19.90;94.60;;;;;;5014649;28;20034;-85
2022/09/07 08:35:59;;;;;;;21.33;15.85;;;20.00;94.40;;;;;;5014359;28;20025;-83
2022/09/07 08:38:27;;;;;;;20.65;17.08;;;20.00;94.30;;;;;;5013302;28;20030;-83
2022/09/07 08:40:53;;;;;;;21.58;16.65;;;20.00;94.20;;;;;;5014204;28;20051;-84
2022/09/07 08:43:27;;;;;;;19.27;15.27;;;20.00;94.20;;;;;;4980743;28;20034;-84
2022/09/07 08:45:55;;;;;;;;;;;20.00;94.20;;;;;;5021399;28;20017;-83
2022/09/07 08:48:29;;;;;;;19.38;14.35;;;20.20;94.20;;;;;;5029935;28;20329;-84
2022/09/07 08:51:10;;;;;;;15.77;12.82;;;20.20;94.20;;;;;;5034197;28;20446;-82
2022/09/07 08:53:44;;;;;;;16.48;13.68;;;20.40;94.10;;;;;;5035290;28;20429;-83
2022/09/07 08:56:28;;;;;;;19.63;15.57;;;20.40;93.80;;;;;;5034754;28;20029;-83
2022/09/07 08:58:54;;;;;;;16.95;15.15;;;20.50;93.60;;;;;;5033331;28;20021;-84
2022/09/07 09:01:39;;;;;;;23.27;16.88;;;20.50;93.50;;;;;;5015668;28;20512;-85
2022/09/07 09:04:23;;;;;;;16.75;13.52;;;20.50;93.50;;;;;;5032403;28;20388;-84
2022/09/07 09:07:31;;;;;;;18.67;14.18;;;20.70;93.50;;;;;;5032189;28;20053;-84
2022/09/07 09:10:34;;;;;;;17.92;13.75;;;20.80;93.50;;;;;;5042004;28;20045;-82
2022/09/07 09:13:18;;;;;;;17.88;14.10;;;21.10;93.30;;;;;;5031901;28;20034;-87
2022/09/07 09:16:21;;;;;;;17.33;13.30;;;21.20;92.80;;;;;;5032307;28;20116;-84
2022/09/07 09:19:32;;;;;;;14.48;12.00;;;21.30;92.50;;;;;;5033412;28;20040;-83
2022/09/07 09:22:19;;;;;;;15.02;11.43;;;21.40;92.30;;;;;;5031566;28;20048;-84
2022/09/07 09:24:52;;;;;;;14.27;12.25;;;21.50;92.00;;;;;;5032625;28;20032;-84
2022/09/07 09:27:18;;;;;;;18.02;13.25;;;21.50;91.80;;;;;;5033316;28;20029;-85
2022/09/07 09:29:44;;;;;;;15.20;13.00;;;21.50;91.60;;;;;;5032180;28;20517;-84
2022/09/07 09:32:30;;;;;;;16.50;12.43;;;21.50;91.40;;;;;;5031999;28;20033;-85
2022/09/07 09:35:42;;;;;;;14.38;12.80;;;21.50;91.40;;;;;;5032097;28;20033;-84
2022/09/07 09:38:39;;;;;;;12.20;10.23;;;21.60;91.20;;;;;;5031591;28;20043;-83
2022/09/07 09:41:11;;;;;;;13.05;10.27;;;21.70;91.10;;;;;;5032643;28;20402;-84
2022/09/07 09:43:50;;;;;;;14.05;10.95;;;21.70;91.00;;;;;;5032228;28;20071;-84
2022/09/07 09:46:26;;;;;;;14.57;11.07;;;21.80;90.80;;;;;;5032970;28;20113;-85
2022/09/07 09:49:02;;;;;;;13.80;11.77;;;21.90;90.60;;;;;;5032067;28;20017;-84
2022/09/07 09:51:39;;;;;;;13.60;11.40;;;21.90;90.00;;;;;;5032426;28;20075;-84
2022/09/07 09:54:23;;;;;;;14.43;11.68;;;22.00;89.80;;;;;;5033095;28;20490;-85
2022/09/07 09:56:48;;;;;;;12.95;11.38;;;22.10;89.30;;;;;;5032157;28;20078;-84
2022/09/07 09:59:17;;;;;;;15.25;12.25;;;22.10;88.80;;;;;;5015204;28;20486;-84
2022/09/07 10:01:45;;;;;;;12.85;10.95;;;22.10;88.40;;;;;;5031839;28;20057;-85
2022/09/07 10:04:23;;;;;;;13.25;11.85;;;22.20;88.40;;;;;;5031716;28;20052;-84
2022/09/07 10:06:54;;;;;;;13.55;10.88;;;22.40;88.10;;;;;;5032642;28;20021;-85
2022/09/07 10:09:34;;;;;;;14.70;11.18;;;22.60;87.50;;;;;;5024595;28;20025;-81
2022/09/07 10:12:04;;;;;;;12.45;9.13;;;22.90;86.70;;;;;;5027367;28;20458;-81
2022/09/07 10:14:32;;;;;;;11.38;8.60;;;23.20;86.20;;;;;;5011628;28;20396;-80
2022/09/07 10:16:59;;;;;;;12.45;7.43;;;23.50;84.90;;;;;;5014435;28;20049;-82
2022/09/07 10:19:37;;;;;;;8.02;5.50;;;23.90;84.20;;;;;;5032946;28;20396;-81
2022/09/07 10:22:19;;;;;;;7.10;5.20;;;24.40;83.30;;;;;;5036109;28;20081;-81
2022/09/07 10:24:45;;;;;;;7.32;4.82;;;25.00;83.30;;;;;;5034604;28;20079;-81
2022/09/07 10:27:37;;;;;;;7.93;4.95;;;25.70;81.50;;;;;;5034593;28;20581;-82
2022/09/07 10:30:12;;;;;;;6.47;4.30;;;26.10;77.70;;;;;;5016892;28;20034;-81
2022/09/07 10:32:37;;;;;;;5.32;3.75;;;26.30;76.40;;;;;;5027453;28;20021;-82
2022/09/07 10:35:25;;;;;;;5.85;4.22;;;26.80;75.10;;;;;;5035667;28;20091;-81
2022/09/07 10:38:10;;;;;;;8.88;5.28;;;26.80;73.20;;;;;;5034286;28;20119;-84
2022/09/07 10:40:59;;;;;;;9.15;5.22;;;26.70;71.00;;;;;;5035640;28;20022;-84
2022/09/07 10:43:38;;;;;;;7.68;4.82;;;26.70;71.10;;;;;;5034546;28;20033;-84
2022/09/07 10:46:30;;;;;;;7.50;3.78;;;26.80;71.20;;;;;;5036222;28;20029;-85
2022/09/07 10:49:36;;;;;;;6.63;4.10;;;26.90;70.80;;;;;;5034785;28;20120;-85
2022/09/07 10:52:11;;;;;;;5.32;3.00;;;27.20;70.60;;;;;;5028040;28;20468;-85
2022/09/07 10:54:49;;;;;;;4.35;2.75;;;27.60;70.60;;;;;;5016010;28;20036;-84
2022/09/07 10:57:39;;;;;;;4.13;2.90;;;27.80;70.00;;;;;;5015693;28;20490;-86
2022/09/07 11:00:16;;;;;;;7.28;3.13;;;28.00;68.90;;;;;;5014681;28;20072;-83
2022/09/07 11:02:57;;;;;;;5.05;2.75;;;28.20;68.40;;;;;;5015903;28;20057;-80
2022/09/07 11:05:31;;;;;;;3.85;1.85;;;28.30;67.20;;;;;;5020553;28;20022;-83
2022/09/07 11:08:32;;;;;;;4.72;1.75;;;28.30;66.60;;;;;;5026950;28;20411;-78
2022/09/07 11:11:24;;;;;;;5.75;2.05;;;28.40;65.60;;;;;;5032511;28;20021;-82
2022/09/07 11:13:53;;;;;;;6.05;2.00;;;28.50;64.60;;;;;;5037252;28;20036;-82
2022/09/07 11:16:25;;;;;;;5.57;2.35;;;28.50;64.30;;;;;;5047984;28;20493;-81
2022/09/07 11:18:57;;;;;;;5.30;2.00;;;28.50;63.40;;;;;;5024044;28;20063;-82
2022/09/07 11:21:26;;;;;;;3.22;1.67;;;28.40;63.10;;;;;;5029402;28;20057;-82
2022/09/07 11:24:02;;;;;;;4.60;1.55;;;28.40;62.60;;;;;;5033907;28;20026;-81
2022/09/07 11:26:43;;;;;;;2.67;1.30;;;28.50;62.50;;;;;;5047916;28;20017;-82
2022/09/07 11:29:37;;;;;;;3.22;1.20;;;28.60;62.00;;;;;;5034416;28;20030;-82
2022/09/07 11:32:10;;;;;;;4.90;1.73;;;28.80;61.40;;;;;;5043372;28;20091;-83
2022/09/07 11:34:46;;;;;;;4.15;1.85;;;28.90;61.00;;;;;;5034970;28;20033;-80
2022/09/07 11:37:18;;;;;;;3.55;1.95;;;29.00;60.40;;;;;;5031389;28;20021;-80
2022/09/07 11:39:50;;;;;;;4.78;1.70;;;29.00;60.10;;;;;;5039710;28;20100;-81
2022/09/07 11:42:33;;;;;;;2.45;0.93;;;29.00;60.10;;;;;;5039270;28;20020;-81
2022/09/07 11:45:03;;;;;;;3.78;1.40;;;28.90;60.20;;;;;;5040286;28;20462;-81
2022/09/07 11:47:45;;;;;;;4.00;1.90;;;29.00;60.30;;;;;;5032601;28;20030;-81
2022/09/07 11:50:21;;;;;;;4.18;1.55;;;29.10;59.60;;;;;;5033432;28;20025;-81
2022/09/07 11:53:05;;;;;;;5.35;1.60;;;29.00;59.30;;;;;;5031335;28;20079;-82
2022/09/07 11:55:37;;;;;;;2.55;1.05;;;29.00;59.10;;;;;;5029900;28;20466;-81
2022/09/07 11:58:27;;;;;;;3.58;1.52;;;29.00;59.30;;;;;;5021297;28;20022;-77
2022/09/07 12:01:02;;;;;;;3.20;1.75;;;29.00;59.00;;;;;;5021779;28;20033;-80
2022/09/07 12:03:51;;;;;;;4.57;1.92;;;29.20;58.90;;;;;;5033070;28;20351;-81
2022/09/07 12:06:59;;;;;;;3.17;1.10;;;29.20;58.00;;;;;;5033129;28;20057;-80
2022/09/07 12:09:46;;;;;;;2.60;1.10;;;29.20;58.00;;;;;;5032078;28;20481;-82
2022/09/07 12:12:33;;;;;;;5.00;1.20;;;29.40;57.70;;;;;;5032927;28;20116;-80
2022/09/07 12:15:16;;;;;;;4.45;1.50;;;29.50;57.50;;;;;;5033815;28;20025;-78
2022/09/07 12:18:23;;;;;;;3.95;1.23;;;29.30;57.10;;;;;;5032477;28;20033;-81
2022/09/07 12:20:53;;;;;;;3.25;1.00;;;29.20;56.90;;;;;;5012530;28;20053;-81
2022/09/07 12:23:30;;;;;;;4.03;1.10;;;29.10;57.50;;;;;;5025899;28;20041;-79
2022/09/07 12:26:33;;;;;;;4.00;0.73;;;29.00;57.20;;;;;;5020468;28;20104;-79
2022/09/07 12:28:59;;;;;;;3.83;0.80;;;29.10;57.10;;;;;;5033839;28;20029;-79
2022/09/07 12:31:49;;;;;;;4.00;0.85;;;29.00;57.00;;;;;;5033438;28;20108;-79
2022/09/07 12:34:30;;;;;;;4.07;0.80;;;29.20;56.70;;;;;;5033988;28;20033;-78
2022/09/07 12:37:08;;;;;;;4.60;0.73;;;29.40;56.30;;;;;;5032773;28;20113;-78
2022/09/07 12:39:36;;;;;;;3.75;0.60;;;29.60;56.10;;;;;;5032126;28;20033;-78
2022/09/07 12:42:04;;;;;;;2.85;0.65;;;29.80;55.70;;;;;;5019646;28;20454;-76
2022/09/07 12:44:32;;;;;;;4.15;1.05;;;30.10;55.30;;;;;;5014344;28;20030;-79
2022/09/07 12:47:02;;;;;;;5.80;0.88;;;30.50;54.70;;;;;;5029110;28;20385;-79
2022/09/07 12:49:50;;;;;;;5.03;0.82;;;30.70;53.90;;;;;;5013354;28;20364;-81
2022/09/07 12:52:38;;;;;;;3.63;0.70;;;31.10;52.70;;;;;;5021445;28;20544;-77
2022/09/07 12:55:13;;;;;;;4.03;0.88;;;31.30;52.50;;;;;;5018763;28;20033;-79
2022/09/07 12:57:50;;;;;;;4.53;0.77;;;31.50;51.70;;;;;;5012086;28;20386;-79
2022/09/07 13:00:30;;;;;;;2.85;0.60;;;31.50;51.30;;;;;;5027527;28;20037;-76
2022/09/07 13:03:20;;;;;;;3.95;0.70;;;31.60;50.90;;;;;;5014475;28;20040;-76
2022/09/07 13:06:19;;;;;;;3.05;0.50;;;31.80;50.70;;;;;;5013513;28;20030;-79
2022/09/07 13:09:08;;;;;;;2.30;0.50;;;32.10;49.80;;;;;;5015638;28;20113;-78
2022/09/07 13:11:39;;;;;;;2.85;0.60;;;32.40;49.80;;;;;;5024138;28;20037;-78
2022/09/07 13:14:20;;;;;;;3.40;0.60;;;32.60;49.10;;;;;;5032194;28;20417;-80